• Join FlightAware (Why Join?)
  • Login
  • US Flag 
11:09PM EDT


 

Airport Tracker/Info


-or-


 

Live Flight TrackerFlight Track Log ✈ N12UP ✈ 11-Jul-2013 ✈ KBED - KBTV

Flight Track Log - Related Links

Times and Time Zones

All times are in EDT time to prevent confusion due to time zone crossing. See the N12UP flight status page for this flight to view local times or setup timezone preferences in your user account.

Time Position Orientation Groundspeed Altitude Reporting Facility
EDT Latitude Longitude Course Direction KTS MPH feet Rate Location/Type
02:42PM 42.4833 -71.3167 270° West 193 222 1,100  Level KA90
02:43PM 42.4833 -71.3667 270° West 187 215 2,100 1,140 Climbing KA90
02:44PM 42.5500 -71.3833 350° North 199 229 3,200 1,560 Climbing KA90
02:45PM 42.5833 -71.3333 48° Northeast 199 229 5,500 2,100 Climbing KA90
02:46PM 42.6450 -71.3194 North 198 228 7,900 2,100 Climbing Boston Center
02:47PM 42.7031 -71.3014 13° North 188 216 10,200 2,040 Climbing Boston Center
02:48PM 42.7489 -71.2864 14° North 183 211 12,000 1,440 Climbing Boston Center
02:49PM 42.8031 -71.2997 350° North 174 200 13,100 480 Climbing Boston Center
02:50PM 42.8453 -71.3497 319° Northwest 204 235 13,000 -60 Descending Boston Center
02:51PM 42.9042 -71.4083 324° Northwest 237 273 13,000  Level Boston Center
02:52PM 42.9528 -71.4642 320° Northwest 242 278 13,000  Level Boston Center
02:53PM 43.0094 -71.5203 324° Northwest 236 272 13,000  Level Boston Center
02:54PM 43.0661 -71.5675 329° Northwest 236 272 13,100  Climbing Boston Center
02:55PM 43.1186 -71.6239 322° Northwest 237 273 13,100  Level Boston Center
02:56PM 43.1711 -71.6800 322° Northwest 237 273 13,100  Level Boston Center
02:57PM 43.2214 -71.7364 321° Northwest 237 273 13,100  Level Boston Center
02:58PM 43.2717 -71.7928 321° Northwest 237 273 13,100  Level Boston Center
02:59PM 43.3242 -71.8494 322° Northwest 237 273 13,100  Level Boston Center
03:00PM 43.3767 -71.9058 322° Northwest 237 273 13,100  Level Boston Center
03:02PM 43.4247 -71.9597 321° Northwest 242 278 13,100  Level Boston Center
03:03PM 43.4875 -72.0253 323° Northwest 242 278 13,100  Level Boston Center
03:04PM 43.5272 -72.0736 319° Northwest 242 278 13,100 -60 Level Boston Center
03:05PM 43.5919 -72.1419 323° Northwest 237 273 13,000 -120 Descending Boston Center
03:06PM 43.6444 -72.2019 320° Northwest 237 273 12,900 -60 Descending Boston Center
03:07PM 43.6964 -72.2619 320° Northwest 237 273 12,900  Level Boston Center
03:08PM 43.7486 -72.3164 323° Northwest 237 273 12,900  Level Boston Center
03:09PM 43.8008 -72.3825 318° Northwest 242 278 12,900  Level Boston Center
03:10PM 43.8633 -72.4517 321° Northwest 237 273 12,900 -180 Level Boston Center
03:11PM 43.9156 -72.5064 323° Northwest 237 273 12,600 -600 Descending Boston Center
03:12PM 43.9694 -72.5756 317° Northwest 237 273 11,800 -960 Descending Boston Center
03:13PM 44.0258 -72.6422 320° Northwest 249 287 10,700 -1,440 Descending Boston Center
03:14PM 44.0881 -72.6972 328° Northwest 261 300 9,000 -1,500 Descending Boston Center
03:15PM 44.1464 -72.7583 323° Northwest 267 307 7,800 -1,080 Descending Boston Center
03:16PM 44.1942 -72.8164 319° Northwest 244 281 6,900 -900 Descending Boston Center
03:17PM 44.2417 -72.8661 323° Northwest 232 267 6,100 -840 Descending Boston Center
03:18PM 44.2875 -72.9128 324° Northwest 215 247 5,300 -960 Descending Boston Center
03:19PM 44.3289 -72.9594 321° Northwest 202 232 4,200 -1,200 Descending Boston Center
03:20PM 44.3683 -73.0092 318° Northwest 196 226 3,000 -1,020 Descending Boston Center
03:21PM 44.4056 -73.0561 318° Northwest 184 212 2,000 -840 Descending Boston Center
03:22PM 44.4386 -73.1000 317° Northwest 171 197 1,200 -780 Descending Boston Center
03:23PM 44.4614 -73.1381 310° West 141 162 500 -480 Descending Boston Center
03:24PM 44.4819 -73.1733 309° West 117 135 300 4,200 Descending Boston Center
03:25PM 44.5025 -73.2114 307° West 117 135 9,000 8,700 Climbing Boston Center
03:27PM 44.4667 -73.1500 133° Southeast  Level FlightAware Approximate
03:34PM 44.4719 -73.1533 133° Southeast  Level Estimated